Formosa Airport
SARF : rendu visible

Aérodrome :











RETROUVEZ-NOUS SUR...

 
LOGIN :

S'inscrire | Disclaimer

   EN    FR    IT 

 









Légende :    VFR   VFR Marginal   IFR   IFR Intensif   IFR Très Intensif
Visi : 
Plafond : 
>= 8 km
>= 3000ft
5 à 8 km
1000 à 3000 ft
1500m à 5 km
500 à 1000 ft
800 à 1500m
200 à 500 ft
< 800m
< 200 ft
Symboles :   Orages  Brouillard  Fortes neiges  Fortes précipitations  Vent > 20 kt






- Altitude de l'aérodrome : 193 ft
- Code IATA : FMA


SARF - Formosa

DERNIER METAR :
  • 242100Z 09007KT 8000 NSC 34/15 Q1010

METARs EXPIRÉS :
  • 242000Z 07009KT CAVOK 36/15 Q1010
  • 241900Z 05008KT CAVOK 36/14 Q1010

TAF TAF SARF
Valide du 24 à 18h jusqu'au 25 à 18h UTC


241700Z 2418/2518 05010KT CAVOK TX38/2518Z TN22/2510Z
FIR SARR / Amérique du Sud



MET'MAP, la Météo Aéronautique d'un coup d'oeil ! - Copyright ORBIFLY Décembre 2007 - Disclaimer

ORBIFLY MET'MAP TEAM :

Programmation & Développement : Alexandra Zaïnal
Sur une idée originale de : Baudouin d'Aumeries
Assistance à la programmation : Marc-Olivier Méhu
Soutien technique & logistique : Manuel Goepfert

Contact : metmap@orbifly.com




SOURCES & CREDITS :

   NOAA       Earth
Advisory